Time;durP1;ratioP1;P1;durP2;ratioP2;P2;SDS_P1;SDS_P2;PMS_P1;PMS_P2;Temp;Humidity;BMP_temperature;BMP_pressure;BME280_temperature;BME280_humidity;BME280_pressure;Samples;Min_cycle;Max_cycle;Signal;HPM_P1;HPM_P2
2022/01/17 00:00:33;;;;;;;5.70;4.18;;;26.90;91.70;;;;;;5074462;28;20028;-61
2022/01/17 00:03:00;;;;;;;5.53;4.13;;;26.90;91.50;;;;;;5075064;28;20480;-62
2022/01/17 00:05:28;;;;;;;6.85;3.97;;;27.00;91.40;;;;;;5075430;28;20028;-57
2022/01/17 00:07:56;;;;;;;6.45;3.88;;;26.90;91.50;;;;;;5074301;28;20321;-56
2022/01/17 00:10:23;;;;;;;9.25;3.97;;;27.00;91.50;;;;;;5074961;28;20097;-58
2022/01/17 00:12:52;;;;;;;6.80;4.15;;;27.10;91.20;;;;;;5074347;28;20048;-62
2022/01/17 00:15:25;;;;;;;7.18;4.53;;;27.10;91.40;;;;;;5073711;28;20446;-53
2022/01/17 00:18:20;;;;;;;5.25;3.65;;;27.10;91.40;;;;;;5071576;28;20103;-59
2022/01/17 00:20:44;;;;;;;6.15;4.32;;;27.10;91.40;;;;;;5072333;28;20378;-57
2022/01/17 00:23:11;;;;;;;;;;;27.20;91.50;;;;;;5072370;28;20116;-54
2022/01/17 00:25:38;;;;;;;6.68;4.20;;;27.30;91.20;;;;;;5073004;28;19912;-56
2022/01/17 00:28:21;;;;;;;6.57;4.18;;;27.40;91.00;;;;;;5072431;28;20124;-52
2022/01/17 00:30:48;;;;;;;4.68;3.80;;;27.50;90.80;;;;;;5073133;28;20124;-57
2022/01/17 00:33:16;;;;;;;6.35;4.22;;;27.50;90.90;;;;;;5072620;28;20028;-54
2022/01/17 00:35:44;;;;;;;11.60;4.32;;;27.50;91.30;;;;;;5072482;28;20031;-60
2022/01/17 00:38:12;;;;;;;7.78;3.78;;;27.50;91.10;;;;;;5072264;28;20028;-60
2022/01/17 00:40:41;;;;;;;5.90;3.78;;;27.60;90.60;;;;;;5070906;28;20032;-53
2022/01/17 00:43:09;;;;;;;6.35;4.00;;;27.60;90.80;;;;;;5072643;28;20032;-52
2022/01/17 00:45:39;;;;;;;6.28;4.20;;;27.70;90.40;;;;;;5072367;28;20089;-63
2022/01/17 00:48:07;;;;;;;7.65;4.68;;;27.80;90.60;;;;;;5072472;28;20146;-58
2022/01/17 00:50:37;;;;;;;6.32;3.97;;;27.80;90.50;;;;;;5072971;28;20021;-59
2022/01/17 00:53:09;;;;;;;5.78;4.00;;;27.90;90.30;;;;;;5072691;28;20032;-59
2022/01/17 00:55:38;;;;;;;10.25;4.45;;;27.90;90.40;;;;;;5072445;28;20045;-56
2022/01/17 00:58:07;;;;;;;8.52;4.40;;;27.80;90.30;;;;;;5072327;28;20027;-59
2022/01/17 01:00:35;;;;;;;7.45;4.20;;;27.80;90.40;;;;;;5072287;28;20051;-59
2022/01/17 01:03:03;;;;;;;7.88;3.85;;;28.00;90.30;;;;;;5072105;28;20040;-56
2022/01/17 01:05:30;;;;;;;9.13;4.32;;;28.00;90.20;;;;;;5071485;28;20017;-61
2022/01/17 01:07:58;;;;;;;8.20;4.32;;;28.10;90.00;;;;;;5070517;28;20032;-63
2022/01/17 01:10:26;;;;;;;7.75;3.53;;;28.10;89.70;;;;;;5071802;28;20025;-58
2022/01/17 01:12:53;;;;;;;6.95;3.90;;;28.20;90.10;;;;;;5072278;28;20063;-56
2022/01/17 01:15:44;;;;;;;7.07;3.70;;;28.20;90.00;;;;;;5071578;28;20393;-57
2022/01/17 01:18:18;;;;;;;7.50;3.88;;;28.30;89.90;;;;;;5071751;28;20060;-63
2022/01/17 01:29:10;;;;;;;5.80;3.65;;;28.40;89.30;;;;;;5071987;28;20028;-57
2022/01/17 01:31:49;;;;;;;6.93;3.90;;;28.40;89.40;;;;;;5070504;28;20479;-60
2022/01/17 01:34:18;;;;;;;8.15;3.92;;;28.50;88.90;;;;;;5071484;28;20100;-57
2022/01/17 01:36:48;;;;;;;7.53;3.80;;;28.50;89.00;;;;;;5071506;28;20035;-59
2022/01/17 01:39:23;;;;;;;5.70;4.20;;;28.60;89.20;;;;;;5069680;28;20024;-51
2022/01/17 01:41:52;;;;;;;5.75;3.50;;;28.60;89.00;;;;;;5071488;28;20080;-63
2022/01/17 01:44:22;;;;;;;8.18;4.32;;;28.70;88.80;;;;;;5071817;28;20028;-51
2022/01/17 01:46:53;;;;;;;5.32;3.38;;;28.70;88.80;;;;;;5071694;28;20025;-52
2022/01/17 01:49:21;;;;;;;5.65;3.22;;;28.70;88.80;;;;;;5071392;28;20029;-52
2022/01/17 01:51:49;;;;;;;4.90;3.63;;;28.70;88.90;;;;;;5071218;28;20020;-52
2022/01/17 01:54:18;;;;;;;9.45;3.85;;;28.90;88.40;;;;;;5070723;28;20089;-62
2022/01/17 01:56:48;;;;;;;7.50;3.85;;;29.00;88.00;;;;;;5071944;28;20071;-58
2022/01/17 01:59:21;;;;;;;9.52;4.05;;;29.00;87.80;;;;;;5071921;28;20060;-56
2022/01/17 02:01:52;;;;;;;10.80;3.72;;;29.10;87.50;;;;;;5071969;28;20039;-58
2022/01/17 02:04:20;;;;;;;4.57;3.42;;;29.10;87.40;;;;;;5071965;28;20029;-56
2022/01/17 02:06:47;;;;;;;8.38;3.67;;;29.00;88.00;;;;;;5071870;28;20069;-51
2022/01/17 02:09:15;;;;;;;11.07;3.83;;;29.00;87.50;;;;;;5071704;28;20111;-62
2022/01/17 02:11:42;;;;;;;5.55;3.70;;;29.10;87.00;;;;;;5070072;28;20025;-57
2022/01/17 02:14:09;;;;;;;4.78;3.72;;;29.10;87.30;;;;;;5071107;28;20037;-59
2022/01/17 02:16:38;;;;;;;5.55;3.60;;;29.10;87.30;;;;;;5071489;28;20043;-51
2022/01/17 02:19:05;;;;;;;9.10;4.15;;;29.00;87.30;;;;;;5071568;28;20121;-61
2022/01/17 02:21:45;;;;;;;8.07;3.70;;;29.10;87.10;;;;;;5071490;28;20048;-58
2022/01/17 02:24:14;;;;;;;14.00;4.88;;;29.10;87.40;;;;;;5070826;28;20492;-57
2022/01/17 02:26:42;;;;;;;9.60;4.05;;;29.00;87.70;;;;;;5071180;28;20016;-61
2022/01/17 02:29:09;;;;;;;5.55;3.90;;;29.00;87.90;;;;;;5071329;28;20383;-60
2022/01/17 02:31:37;;;;;;;7.90;4.13;;;29.00;88.00;;;;;;5074940;28;20056;-52
2022/01/17 02:34:05;;;;;;;6.40;3.88;;;28.80;88.60;;;;;;5074839;28;20467;-59
2022/01/17 02:36:33;;;;;;;6.07;3.75;;;28.80;88.70;;;;;;5075271;28;20077;-59
2022/01/17 02:39:02;;;;;;;7.60;3.65;;;28.80;88.60;;;;;;5075109;28;20387;-62
2022/01/17 02:41:33;;;;;;;7.90;3.90;;;28.90;88.80;;;;;;5075609;28;20179;-59
2022/01/17 02:44:02;;;;;;;7.43;3.75;;;28.90;88.30;;;;;;5075734;28;20042;-58
2022/01/17 02:46:30;;;;;;;8.55;3.40;;;28.80;88.90;;;;;;5075667;28;20052;-55
2022/01/17 02:49:00;;;;;;;13.50;4.15;;;28.90;88.60;;;;;;5074037;28;20367;-62
2022/01/17 02:51:29;;;;;;;8.90;3.50;;;28.90;88.70;;;;;;5074359;28;20046;-60
2022/01/17 02:53:58;;;;;;;7.55;3.55;;;28.90;88.10;;;;;;5074109;28;20028;-57
2022/01/17 02:56:25;;;;;;;8.40;3.88;;;28.90;88.30;;;;;;5074461;28;20094;-53
2022/01/17 02:58:53;;;;;;;9.18;4.13;;;28.80;89.00;;;;;;5075181;28;20058;-64
2022/01/17 03:01:24;;;;;;;6.53;3.45;;;28.80;89.10;;;;;;5074875;28;20027;-59
2022/01/17 03:03:52;;;;;;;10.07;4.15;;;28.90;88.80;;;;;;5074048;28;20037;-51
2022/01/17 03:06:20;;;;;;;8.40;4.00;;;28.80;88.80;;;;;;5072697;28;20021;-64
2022/01/17 03:08:47;;;;;;;9.02;3.90;;;28.80;88.90;;;;;;5072574;28;20432;-62
2022/01/17 03:11:21;;;;;;;7.53;4.18;;;28.90;88.70;;;;;;5074259;28;20378;-53
2022/01/17 03:13:50;;;;;;;9.07;3.92;;;28.80;89.10;;;;;;5074182;28;20024;-56
2022/01/17 03:16:19;;;;;;;6.10;3.42;;;28.80;89.30;;;;;;5074145;28;20055;-62
2022/01/17 03:18:50;;;;;;;10.00;3.67;;;28.70;89.60;;;;;;5073900;28;20025;-61
2022/01/17 03:21:19;;;;;;;11.43;5.60;;;28.80;89.80;;;;;;5073514;28;20480;-60
2022/01/17 03:23:49;;;;;;;7.15;3.35;;;28.80;89.50;;;;;;5073338;28;20289;-59
2022/01/17 03:26:16;;;;;;;8.50;4.25;;;28.90;89.60;;;;;;5073460;28;20129;-62
2022/01/17 03:28:44;;;;;;;7.57;4.00;;;28.90;89.40;;;;;;5072269;28;20432;-52
2022/01/17 03:31:12;;;;;;;6.20;3.45;;;28.70;89.90;;;;;;5073472;28;20134;-57
2022/01/17 03:33:40;;;;;;;6.22;3.30;;;28.80;89.60;;;;;;5073377;28;20100;-61
2022/01/17 03:36:08;;;;;;;9.75;3.97;;;28.70;90.10;;;;;;5071611;28;20093;-61
2022/01/17 03:38:36;;;;;;;9.18;4.28;;;28.80;90.00;;;;;;5073135;28;20099;-53
2022/01/17 03:41:07;;;;;;;9.30;4.30;;;28.90;89.80;;;;;;5072591;28;20035;-56
2022/01/17 03:43:35;;;;;;;10.27;4.07;;;28.90;89.70;;;;;;5073187;28;20033;-52
2022/01/17 03:46:03;;;;;;;5.60;3.50;;;28.80;89.80;;;;;;5073283;28;20086;-57
2022/01/17 03:48:32;;;;;;;7.28;4.03;;;28.80;90.00;;;;;;5073414;28;20123;-62
2022/01/17 03:51:01;;;;;;;11.10;4.07;;;28.80;89.90;;;;;;5073465;28;20025;-61
2022/01/17 03:53:29;;;;;;;8.60;4.47;;;28.80;90.00;;;;;;5072394;28;20028;-56
2022/01/17 03:55:57;;;;;;;9.52;4.63;;;28.90;89.80;;;;;;5072711;28;20053;-58
2022/01/17 03:58:27;;;;;;;8.20;4.05;;;28.80;90.00;;;;;;5073092;28;20474;-59
2022/01/17 04:00:56;;;;;;;10.80;3.83;;;28.80;90.00;;;;;;5072855;28;20039;-58
2022/01/17 04:03:26;;;;;;;6.03;3.25;;;28.70;90.20;;;;;;5071406;28;20371;-59
2022/01/17 04:05:54;;;;;;;9.90;4.50;;;28.60;90.20;;;;;;5072702;28;20332;-57
2022/01/17 04:08:24;;;;;;;6.40;4.00;;;28.50;90.50;;;;;;5071589;28;20098;-56
2022/01/17 04:10:52;;;;;;;10.85;4.85;;;28.60;90.50;;;;;;5071525;28;20455;-57
2022/01/17 04:13:19;;;;;;;6.18;3.42;;;28.50;90.40;;;;;;5072517;28;20036;-51
2022/01/17 04:15:47;;;;;;;8.73;4.40;;;28.50;90.70;;;;;;5072558;28;20028;-57
2022/01/17 04:18:16;;;;;;;6.03;4.20;;;28.50;90.60;;;;;;5073261;28;20087;-57
2022/01/17 04:20:44;;;;;;;11.38;5.53;;;28.60;90.50;;;;;;5072673;28;20025;-52
2022/01/17 04:23:13;;;;;;;6.57;4.45;;;28.50;90.60;;;;;;5072415;28;20479;-56
2022/01/17 04:25:42;;;;;;;8.95;4.35;;;28.50;90.60;;;;;;5072346;28;20028;-62
2022/01/17 04:28:12;;;;;;;6.70;3.70;;;28.50;90.60;;;;;;5072094;28;20029;-56
2022/01/17 04:30:41;;;;;;;12.60;4.82;;;28.50;90.70;;;;;;5072350;28;20039;-60
2022/01/17 04:33:09;;;;;;;10.30;4.90;;;28.50;90.60;;;;;;5072105;28;20028;-54
2022/01/17 04:35:37;;;;;;;8.60;4.25;;;28.50;90.70;;;;;;5072824;28;20131;-56
2022/01/17 04:38:08;;;;;;;5.95;3.78;;;28.40;90.80;;;;;;5072010;28;20024;-49
2022/01/17 04:40:38;;;;;;;7.77;4.73;;;28.30;90.90;;;;;;5072593;28;20025;-58
2022/01/17 04:43:32;;;;;;;9.07;5.05;;;28.30;90.90;;;;;;5072123;28;20378;-59
2022/01/17 04:45:58;;;;;;;7.75;4.68;;;28.30;90.90;;;;;;5071800;28;20021;-60
2022/01/17 04:48:26;;;;;;;7.55;4.70;;;28.20;91.10;;;;;;5072495;28;20100;-57
2022/01/17 04:50:53;;;;;;;6.75;4.60;;;28.30;91.20;;;;;;5072314;28;20129;-52
2022/01/17 04:53:21;;;;;;;6.15;4.50;;;28.20;91.20;;;;;;5071847;28;20332;-55
2022/01/17 04:55:49;;;;;;;6.60;4.25;;;28.30;91.10;;;;;;5072004;28;20215;-59
2022/01/17 04:58:17;;;;;;;9.30;4.93;;;28.20;91.30;;;;;;5072059;28;20024;-58
2022/01/17 05:00:48;;;;;;;10.13;4.63;;;28.20;91.10;;;;;;5072180;28;20378;-59
2022/01/17 05:03:17;;;;;;;11.20;4.45;;;28.20;91.20;;;;;;5070123;28;20556;-55
2022/01/17 05:05:45;;;;;;;13.93;5.45;;;28.20;91.30;;;;;;5071386;28;20028;-58
2022/01/17 05:08:13;;;;;;;10.05;5.70;;;28.30;91.20;;;;;;5071141;28;20035;-56
2022/01/17 05:10:43;;;;;;;8.10;5.10;;;28.30;91.30;;;;;;5071384;28;20498;-60
2022/01/17 05:13:16;;;;;;;11.02;5.53;;;28.30;91.30;;;;;;5071525;28;20100;-56
2022/01/17 05:15:49;;;;;;;8.73;4.82;;;28.30;91.10;;;;;;5071686;28;20029;-60
2022/01/17 05:20:59;;;;;;;6.57;4.30;;;28.30;91.10;;;;;;5071409;28;20315;-63
2022/01/17 05:23:27;;;;;;;8.40;4.75;;;28.30;91.20;;;;;;5071115;28;20463;-55
2022/01/17 05:25:54;;;;;;;6.82;4.35;;;28.30;91.20;;;;;;5071188;28;20025;-61
2022/01/17 05:28:21;;;;;;;12.32;5.70;;;28.30;91.30;;;;;;5071092;28;20025;-61
2022/01/17 05:30:49;;;;;;;9.38;4.95;;;28.20;91.20;;;;;;5069983;28;20020;-61
2022/01/17 05:33:16;;;;;;;8.55;5.13;;;28.20;91.10;;;;;;5071079;28;20043;-56
2022/01/17 05:35:44;;;;;;;9.30;5.35;;;28.30;91.10;;;;;;5070997;28;20096;-50
2022/01/17 05:38:12;;;;;;;10.93;5.78;;;28.20;91.10;;;;;;5070659;28;20302;-59
2022/01/17 05:40:39;;;;;;;9.68;5.47;;;28.20;91.10;;;;;;5070856;28;20363;-56
2022/01/17 05:43:06;;;;;;;7.45;5.15;;;28.20;91.20;;;;;;5070026;28;20104;-54
2022/01/17 05:45:34;;;;;;;8.95;5.85;;;28.00;91.50;;;;;;5070995;28;20066;-61
2022/01/17 05:48:02;;;;;;;7.13;5.20;;;28.00;91.50;;;;;;5070546;28;20055;-55
2022/01/17 05:50:30;;;;;;;8.40;5.60;;;27.90;91.70;;;;;;5070667;28;20055;-55
2022/01/17 05:52:57;;;;;;;10.65;5.63;;;27.90;91.50;;;;;;5069746;28;20100;-60
2022/01/17 05:55:25;;;;;;;9.07;6.15;;;27.90;91.40;;;;;;5071563;28;20086;-55
2022/01/17 05:57:52;;;;;;;9.65;5.68;;;27.90;91.60;;;;;;5071871;28;20040;-51
2022/01/17 06:00:19;;;;;;;7.47;4.72;;;27.90;91.70;;;;;;5071790;28;20532;-57
2022/01/17 06:02:48;;;;;;;8.95;5.28;;;27.80;91.90;;;;;;5070932;28;20037;-60
2022/01/17 06:05:15;;;;;;;9.38;5.38;;;27.80;91.80;;;;;;5072964;28;20468;-57
2022/01/17 06:07:43;;;;;;;9.35;5.35;;;27.80;91.50;;;;;;5075474;28;20416;-58
2022/01/17 06:10:11;;;;;;;7.88;5.18;;;27.80;91.90;;;;;;5075238;28;20103;-59
2022/01/17 06:12:41;;;;;;;10.77;5.25;;;27.70;92.10;;;;;;5074998;28;20111;-59
2022/01/17 06:15:09;;;;;;;8.68;5.25;;;27.70;91.80;;;;;;5075156;28;20028;-54
2022/01/17 06:17:37;;;;;;;7.60;5.00;;;27.70;91.80;;;;;;5074906;28;20482;-56
2022/01/17 06:20:06;;;;;;;9.10;4.85;;;27.70;92.00;;;;;;5075782;28;20032;-54
2022/01/17 06:22:33;;;;;;;6.82;4.70;;;27.70;91.80;;;;;;5075084;28;20134;-57
2022/01/17 06:25:01;;;;;;;6.72;4.85;;;27.70;92.00;;;;;;5073696;28;20058;-57
2022/01/17 06:27:28;;;;;;;7.25;5.35;;;27.70;91.90;;;;;;5075054;28;20025;-60
2022/01/17 06:29:57;;;;;;;9.10;5.05;;;27.70;92.30;;;;;;5074783;28;20024;-58
2022/01/17 06:32:26;;;;;;;8.93;5.00;;;27.70;92.10;;;;;;5075083;28;20379;-54
2022/01/17 06:34:58;;;;;;;7.07;4.70;;;27.70;92.20;;;;;;5075317;28;20024;-49
2022/01/17 06:37:26;;;;;;;7.43;5.25;;;27.70;92.30;;;;;;5074455;28;20020;-57
2022/01/17 06:39:53;;;;;;;11.75;5.93;;;27.60;92.30;;;;;;5074493;28;20028;-58
2022/01/17 06:42:22;;;;;;;9.05;4.93;;;27.60;92.20;;;;;;5073037;28;20517;-59
2022/01/17 06:44:50;;;;;;;7.53;5.07;;;27.60;92.30;;;;;;5074731;28;20375;-60
2022/01/17 06:47:17;;;;;;;6.75;4.57;;;27.60;92.30;;;;;;5074468;28;20028;-60
2022/01/17 06:49:45;;;;;;;7.82;5.63;;;27.60;92.30;;;;;;5074077;28;20032;-54
2022/01/17 06:52:12;;;;;;;9.27;5.90;;;27.60;92.40;;;;;;5073815;28;20111;-60
2022/01/17 06:54:40;;;;;;;8.20;4.28;;;27.50;92.50;;;;;;5074298;28;20049;-54
2022/01/17 06:57:07;;;;;;;11.70;4.90;;;27.60;92.20;;;;;;5074493;28;20055;-56
2022/01/17 06:59:34;;;;;;;13.15;5.13;;;27.70;92.10;;;;;;5072712;28;20061;-56
2022/01/17 07:02:02;;;;;;;11.07;4.82;;;27.70;92.10;;;;;;5074222;28;20028;-58
2022/01/17 07:04:29;;;;;;;9.40;4.18;;;27.70;91.50;;;;;;5074230;28;20415;-58
2022/01/17 07:06:57;;;;;;;9.10;4.00;;;27.70;91.50;;;;;;5073928;28;20374;-55
2022/01/17 07:09:24;;;;;;;9.30;3.83;;;27.70;91.50;;;;;;5072768;28;20020;-55
2022/01/17 07:11:51;;;;;;;6.05;3.58;;;27.70;91.60;;;;;;5073910;28;20440;-57
2022/01/17 07:14:19;;;;;;;12.52;4.47;;;27.60;91.60;;;;;;5074024;28;20162;-60
2022/01/17 07:16:46;;;;;;;10.13;3.80;;;27.70;91.50;;;;;;5073584;28;20352;-58
2022/01/17 07:19:13;;;;;;;11.73;3.63;;;27.60;91.70;;;;;;5073535;28;20151;-55
2022/01/17 07:21:41;;;;;;;18.42;4.47;;;27.70;91.70;;;;;;5073486;28;20025;-54
2022/01/17 07:24:08;;;;;;;9.75;3.17;;;27.60;91.70;;;;;;5073622;28;20051;-59
2022/01/17 07:26:35;;;;;;;10.55;3.90;;;27.60;91.60;;;;;;5073973;28;20029;-59
2022/01/17 07:29:08;;;;;;;11.13;4.32;;;27.60;91.70;;;;;;5073586;28;20032;-54
2022/01/17 07:31:39;;;;;;;11.18;3.63;;;27.60;91.60;;;;;;5072224;28;20533;-50
2022/01/17 07:34:07;;;;;;;12.18;3.50;;;27.60;91.70;;;;;;5073629;28;20214;-57
2022/01/17 07:36:34;;;;;;;14.27;3.50;;;27.50;91.70;;;;;;5073447;28;20060;-58
2022/01/17 07:39:02;;;;;;;11.30;3.28;;;27.40;91.80;;;;;;5074006;28;20020;-57
2022/01/17 07:41:29;;;;;;;13.30;3.97;;;27.40;91.90;;;;;;5073701;28;20024;-58
2022/01/17 07:43:57;;;;;;;9.68;3.42;;;27.40;92.00;;;;;;5073636;28;20119;-57
2022/01/17 07:46:33;;;;;;;10.63;3.30;;;27.40;92.00;;;;;;5074705;28;20047;-58
2022/01/17 07:49:10;;;;;;;10.75;3.30;;;27.40;92.00;;;;;;5073744;28;20024;-57
2022/01/17 07:51:43;;;;;;;9.77;2.92;;;27.40;92.10;;;;;;5073610;28;20387;-57
2022/01/17 07:54:14;;;;;;;10.20;3.00;;;27.40;92.10;;;;;;5073227;28;20116;-59
2022/01/17 07:56:42;;;;;;;9.65;2.85;;;27.40;92.20;;;;;;5073704;28;20035;-58
2022/01/17 07:59:10;;;;;;;9.20;3.00;;;27.30;92.20;;;;;;5073559;28;20028;-51
2022/01/17 08:01:39;;;;;;;10.93;3.03;;;27.30;92.30;;;;;;5072946;28;20052;-55
2022/01/17 08:04:07;;;;;;;9.75;3.38;;;27.30;92.30;;;;;;5073271;28;20085;-63
2022/01/17 08:06:39;;;;;;;10.23;3.30;;;27.20;92.50;;;;;;5073274;28;20467;-65
2022/01/17 08:09:12;;;;;;;14.30;4.15;;;27.20;92.50;;;;;;5073780;28;20150;-61
2022/01/17 08:11:39;;;;;;;11.15;3.33;;;27.20;93.00;;;;;;5073561;28;20020;-60
2022/01/17 08:14:07;;;;;;;9.00;3.28;;;27.20;92.70;;;;;;5073624;28;20029;-63
2022/01/17 08:16:37;;;;;;;9.98;2.88;;;27.10;92.80;;;;;;5073928;28;20039;-62
2022/01/17 08:19:05;;;;;;;8.38;3.38;;;27.10;92.80;;;;;;5073605;28;20012;-56
2022/01/17 08:21:33;;;;;;;8.57;3.17;;;27.10;93.50;;;;;;5073411;28;20124;-57
2022/01/17 08:24:00;;;;;;;9.50;4.10;;;27.10;93.40;;;;;;5073340;28;20040;-60
2022/01/17 08:26:28;;;;;;;8.13;3.05;;;27.20;93.20;;;;;;5073175;28;20100;-57
2022/01/17 08:28:55;;;;;;;15.98;3.50;;;27.20;93.60;;;;;;5073029;28;20036;-56
2022/01/17 08:31:22;;;;;;;10.13;3.95;;;27.20;93.40;;;;;;5073536;28;20029;-60
2022/01/17 08:33:50;;;;;;;11.00;2.97;;;27.20;94.20;;;;;;5071514;28;20028;-58
2022/01/17 08:36:19;;;;;;;11.55;3.40;;;27.20;93.10;;;;;;5072832;28;20036;-55
2022/01/17 08:38:48;;;;;;;11.68;3.70;;;27.20;93.60;;;;;;5072640;28;20052;-59
2022/01/17 08:41:18;;;;;;;10.20;3.95;;;27.20;94.20;;;;;;5073060;28;20483;-59
2022/01/17 08:43:45;;;;;;;14.77;3.47;;;27.30;94.10;;;;;;5072753;28;20047;-64
2022/01/17 08:46:13;;;;;;;4.90;2.67;;;27.20;94.20;;;;;;5072866;28;20035;-60
2022/01/17 08:48:42;;;;;;;6.38;3.55;;;27.30;94.50;;;;;;5072890;28;20024;-60
2022/01/17 08:51:09;;;;;;;7.32;2.90;;;27.30;94.10;;;;;;5072443;28;20032;-59
2022/01/17 08:53:37;;;;;;;6.95;2.78;;;27.30;94.40;;;;;;5072837;28;20031;-63
2022/01/17 08:56:05;;;;;;;9.10;3.33;;;27.30;94.60;;;;;;5072477;28;20048;-62
2022/01/17 08:58:33;;;;;;;5.65;2.58;;;27.30;93.80;;;;;;5073056;28;20021;-63
2022/01/17 09:01:01;;;;;;;9.18;2.47;;;27.30;93.70;;;;;;5073060;28;20100;-61
2022/01/17 09:03:28;;;;;;;9.00;2.92;;;27.30;94.00;;;;;;5073205;28;20074;-64
2022/01/17 09:05:55;;;;;;;7.72;3.35;;;27.30;94.50;;;;;;5072716;28;20290;-58
2022/01/17 09:08:24;;;;;;;7.97;2.95;;;27.30;93.70;;;;;;5071561;28;20119;-65
2022/01/17 09:10:55;;;;;;;10.35;3.17;;;27.30;93.50;;;;;;5073055;28;20027;-55
2022/01/17 09:13:23;;;;;;;6.95;2.40;;;27.20;93.60;;;;;;5072459;28;20390;-61
2022/01/17 09:15:51;;;;;;;5.13;2.67;;;27.20;93.90;;;;;;5072939;28;20109;-61
2022/01/17 09:18:20;;;;;;;6.18;2.50;;;27.20;94.00;;;;;;5072524;28;20391;-61
2022/01/17 09:20:48;;;;;;;4.93;2.28;;;27.20;94.20;;;;;;5072631;28;20029;-58
2022/01/17 09:23:16;;;;;;;9.85;2.65;;;27.20;94.10;;;;;;5072492;28;20035;-60
2022/01/17 09:25:44;;;;;;;9.07;2.83;;;27.20;94.00;;;;;;5072418;28;20056;-58
2022/01/17 09:28:11;;;;;;;6.57;2.38;;;27.20;94.00;;;;;;5072057;28;20029;-56
2022/01/17 09:30:39;;;;;;;4.75;2.28;;;27.10;94.00;;;;;;5071971;28;20029;-62
2022/01/17 09:33:07;;;;;;;5.50;2.50;;;27.10;94.00;;;;;;5072359;28;20077;-62
2022/01/17 09:35:35;;;;;;;10.52;2.65;;;27.10;94.00;;;;;;5072170;28;20025;-61
2022/01/17 09:38:03;;;;;;;6.88;2.67;;;27.10;94.00;;;;;;5071865;28;20112;-62
2022/01/17 09:40:30;;;;;;;6.28;2.60;;;27.10;94.00;;;;;;5069591;28;20021;-57
2022/01/17 09:42:59;;;;;;;5.70;1.98;;;27.00;93.90;;;;;;5070510;28;20050;-62
2022/01/17 09:45:26;;;;;;;5.88;2.55;;;27.10;94.00;;;;;;5072325;28;20102;-60
2022/01/17 09:47:54;;;;;;;7.55;2.08;;;27.00;93.90;;;;;;5071497;28;20157;-62
2022/01/17 09:50:32;;;;;;;7.35;2.42;;;27.00;93.90;;;;;;5072203;28;20428;-55
2022/01/17 09:53:02;;;;;;;6.20;2.40;;;27.00;93.90;;;;;;5072165;28;20380;-59
2022/01/17 09:55:31;;;;;;;5.78;1.80;;;27.00;94.00;;;;;;5071912;28;20572;-59
2022/01/17 09:58:03;;;;;;;4.07;1.85;;;27.00;93.90;;;;;;5072420;28;20021;-61
2022/01/17 10:00:33;;;;;;;5.38;1.92;;;27.00;93.80;;;;;;5072659;28;20056;-60
2022/01/17 10:03:06;;;;;;;3.97;2.03;;;27.00;93.90;;;;;;5071746;28;20048;-57
2022/01/17 10:05:36;;;;;;;4.70;2.40;;;27.00;94.00;;;;;;5071346;28;20017;-60
2022/01/17 10:08:08;;;;;;;4.32;1.88;;;27.00;94.00;;;;;;5071732;28;20032;-58
2022/01/17 10:10:50;;;;;;;5.78;2.17;;;26.90;93.90;;;;;;5071928;28;20025;-62
2022/01/17 10:13:23;;;;;;;;;;;26.90;93.90;;;;;;5070910;28;20063;-59
2022/01/17 10:16:19;;;;;;;5.22;2.05;;;26.90;94.10;;;;;;5071734;28;19927;-57
2022/01/17 10:19:04;;;;;;;7.95;2.80;;;26.90;94.00;;;;;;5071859;28;20024;-54
2022/01/17 10:21:40;;;;;;;5.80;2.53;;;26.90;94.10;;;;;;5070917;28;20048;-60
2022/01/17 10:27:07;;;;;;;6.43;2.00;;;26.90;94.00;;;;;;5071818;28;20096;-58
2022/01/17 10:34:54;;;;;;;7.38;2.42;;;26.80;94.10;;;;;;5071745;28;20456;-61
2022/01/17 10:37:24;;;;;;;6.72;2.60;;;26.80;94.00;;;;;;5071944;28;20032;-62
2022/01/17 10:40:09;;;;;;;8.40;2.13;;;26.80;94.20;;;;;;5071444;28;20050;-61
2022/01/17 10:42:41;;;;;;;7.35;1.98;;;26.80;94.10;;;;;;5071930;28;20032;-56
2022/01/17 10:45:14;;;;;;;6.80;2.80;;;26.80;94.00;;;;;;5071646;28;20471;-57
2022/01/17 10:47:43;;;;;;;6.57;1.90;;;26.80;94.20;;;;;;5071442;28;20479;-55
2022/01/17 10:50:15;;;;;;;6.88;2.40;;;26.80;94.30;;;;;;5070918;28;20048;-57
2022/01/17 10:52:46;;;;;;;5.85;1.73;;;26.70;94.30;;;;;;5075303;28;20086;-59
2022/01/17 10:55:24;;;;;;;;;;;26.70;94.20;;;;;;5075250;28;20048;-54
2022/01/17 10:57:54;;;;;;;7.10;2.30;;;26.70;94.10;;;;;;5074676;28;19908;-55
2022/01/17 11:00:28;;;;;;;4.78;1.95;;;26.70;94.20;;;;;;5075079;28;20025;-60
2022/01/17 11:02:59;;;;;;;4.40;2.10;;;26.70;94.20;;;;;;5075016;28;20043;-58
2022/01/17 11:05:32;;;;;;;3.75;2.08;;;26.70;94.30;;;;;;5074486;28;20017;-57
2022/01/17 11:08:01;;;;;;;4.68;2.10;;;26.70;94.20;;;;;;5074684;28;20036;-56
2022/01/17 11:10:38;;;;;;;4.72;2.20;;;26.70;94.30;;;;;;5075061;28;20038;-58
2022/01/17 11:13:08;;;;;;;6.00;2.17;;;26.70;94.30;;;;;;5074694;28;20028;-61
2022/01/17 11:15:37;;;;;;;4.15;2.30;;;26.70;94.30;;;;;;5074843;28;20409;-56
2022/01/17 11:18:16;;;;;;;3.80;2.00;;;26.60;94.20;;;;;;5074191;28;20047;-58
2022/01/17 11:20:44;;;;;;;4.40;1.58;;;26.60;94.30;;;;;;5074236;28;20456;-61
2022/01/17 11:23:11;;;;;;;5.82;2.20;;;26.60;94.30;;;;;;5073220;28;20037;-60
2022/01/17 11:25:45;;;;;;;6.40;2.08;;;26.60;94.20;;;;;;5074240;28;20027;-57
2022/01/17 11:28:16;;;;;;;5.95;2.38;;;26.60;94.20;;;;;;5073998;28;20028;-59
2022/01/17 11:30:44;;;;;;;6.28;2.45;;;26.60;94.30;;;;;;5074461;28;20032;-56
2022/01/17 11:33:12;;;;;;;5.10;2.03;;;26.60;94.30;;;;;;5073055;28;20040;-57
2022/01/17 11:35:42;;;;;;;6.13;2.55;;;26.60;94.30;;;;;;5074042;28;20056;-59
2022/01/17 11:38:19;;;;;;;3.20;1.65;;;26.60;94.40;;;;;;5074177;28;20017;-59
2022/01/17 11:40:46;;;;;;;5.60;2.03;;;26.60;94.40;;;;;;5074096;28;20048;-62
2022/01/17 11:43:37;;;;;;;6.50;2.22;;;26.60;94.30;;;;;;5073971;28;20412;-61
2022/01/17 11:46:19;;;;;;;7.75;2.15;;;26.60;94.30;;;;;;5074037;28;20383;-60
2022/01/17 11:48:56;;;;;;;5.45;2.00;;;26.60;94.30;;;;;;5074390;28;20097;-60
2022/01/17 11:51:34;;;;;;;4.25;1.77;;;26.60;94.30;;;;;;5073924;28;20032;-60
2022/01/17 11:54:13;;;;;;;6.07;1.92;;;26.60;94.30;;;;;;5073322;28;20029;-61
2022/01/17 11:56:47;;;;;;;6.20;2.13;;;26.50;94.20;;;;;;5074110;28;20032;-57
2022/01/17 11:59:46;;;;;;;5.68;2.13;;;26.60;94.30;;;;;;5073700;28;20028;-61
2022/01/17 12:02:29;;;;;;;6.25;2.42;;;26.50;94.20;;;;;;5072570;28;20036;-62
2022/01/17 12:07:54;;;;;;;6.10;2.30;;;26.50;94.30;;;;;;5075610;28;20075;-59
2022/01/17 12:10:53;;;;;;;3.72;1.70;;;26.60;94.30;;;;;;5073887;28;20430;-60
2022/01/17 12:13:23;;;;;;;4.68;1.80;;;26.50;94.30;;;;;;5072288;28;20383;-61
2022/01/17 12:16:09;;;;;;;3.75;1.80;;;26.50;94.30;;;;;;5073580;28;20028;-61
2022/01/17 12:18:40;;;;;;;5.03;2.10;;;26.50;94.30;;;;;;5071758;28;20024;-59
2022/01/17 12:21:44;;;;;;;5.28;1.67;;;26.50;94.30;;;;;;5073470;28;20051;-58
2022/01/17 12:24:18;;;;;;;6.97;1.45;;;26.50;94.30;;;;;;5051662;28;20045;-61
2022/01/17 12:27:01;;;;;;;5.00;1.80;;;26.50;94.40;;;;;;5073022;28;20028;-54
2022/01/17 12:29:52;;;;;;;7.47;2.67;;;26.50;94.50;;;;;;5073231;28;20479;-60
2022/01/17 12:32:26;;;;;;;4.80;2.20;;;26.40;94.40;;;;;;5073548;28;20021;-59
2022/01/17 12:34:59;;;;;;;11.75;2.85;;;26.50;94.40;;;;;;5072971;28;20075;-61
2022/01/17 12:37:45;;;;;;;4.35;1.95;;;26.40;94.40;;;;;;5072885;28;20024;-60
2022/01/17 12:40:18;;;;;;;4.60;2.42;;;26.50;94.40;;;;;;5072799;28;20031;-58
2022/01/17 12:43:00;;;;;;;5.40;2.22;;;26.40;94.40;;;;;;5072462;28;20025;-58
2022/01/17 12:45:35;;;;;;;4.68;1.50;;;26.40;94.40;;;;;;5072630;28;20079;-60
2022/01/17 12:48:10;;;;;;;6.18;2.25;;;26.50;94.40;;;;;;5071023;28;20086;-60
2022/01/17 12:50:40;;;;;;;5.03;1.80;;;26.40;94.40;;;;;;5072415;28;20047;-59
2022/01/17 12:53:10;;;;;;;3.70;1.80;;;26.40;94.40;;;;;;5072457;28;20020;-58
2022/01/17 12:55:56;;;;;;;6.82;2.58;;;26.40;94.40;;;;;;5072305;28;20424;-55
2022/01/17 12:58:31;;;;;;;4.50;1.98;;;26.40;94.40;;;;;;5072582;28;20478;-56
2022/01/17 13:01:20;;;;;;;5.68;1.88;;;26.40;94.40;;;;;;5072374;28;20044;-55
2022/01/17 13:03:49;;;;;;;4.78;2.05;;;26.40;94.40;;;;;;5072121;28;20039;-58
2022/01/17 13:06:21;;;;;;;2.83;1.45;;;26.40;94.40;;;;;;5072460;28;20399;-58
2022/01/17 13:08:51;;;;;;;4.13;2.10;;;26.40;94.40;;;;;;5072517;28;20108;-60
2022/01/17 13:11:25;;;;;;;6.25;1.83;;;26.40;94.40;;;;;;5072389;28;20021;-60
2022/01/17 13:14:04;;;;;;;7.63;2.55;;;26.40;94.40;;;;;;5071862;28;20032;-56
2022/01/17 13:16:35;;;;;;;3.90;1.90;;;26.40;94.40;;;;;;5072214;28;20127;-59
2022/01/17 13:19:06;;;;;;;4.53;1.70;;;26.40;94.50;;;;;;5072239;28;20034;-57
2022/01/17 13:21:37;;;;;;;2.47;1.52;;;26.40;94.50;;;;;;5072003;28;20028;-59
2022/01/17 13:24:15;;;;;;;4.63;1.80;;;26.40;94.50;;;;;;5070870;28;20110;-60